Time;durP1;ratioP1;P1;durP2;ratioP2;P2;SDS_P1;SDS_P2;PMS_P1;PMS_P2;Temp;Humidity;BMP_temperature;BMP_pressure;BME280_temperature;BME280_humidity;BME280_pressure;Samples;Min_cycle;Max_cycle;Signal;HPM_P1;HPM_P2
2024/03/13 00:00:22;;;;;;;5.10;4.10;;;8.60;1.00;;;;;;5069539;28;20564;-82
2024/03/13 00:02:53;;;;;;;6.00;5.10;;;8.50;1.00;;;;;;5067682;28;20514;-82
2024/03/13 00:05:23;;;;;;;4.63;4.20;;;8.50;1.00;;;;;;5071413;28;20462;-83
2024/03/13 00:07:53;;;;;;;4.63;4.33;;;8.60;1.00;;;;;;5069543;28;20456;-82
2024/03/13 00:10:21;;;;;;;5.40;4.90;;;8.60;1.00;;;;;;5068212;28;20480;-81
2024/03/13 00:12:50;;;;;;;4.80;4.50;;;8.50;99.90;;;;;;5063849;28;20544;-81
2024/03/13 00:15:18;;;;;;;3.80;3.60;;;8.60;1.00;;;;;;5073102;28;20466;-83
2024/03/13 00:17:47;;;;;;;4.53;4.23;;;8.50;1.00;;;;;;5065636;28;20575;-83
2024/03/13 00:20:16;;;;;;;4.30;4.00;;;8.50;1.00;;;;;;5066095;28;20470;-81
2024/03/13 00:22:47;;;;;;;3.70;3.50;;;8.60;5.10;;;;;;5068048;28;20463;-82
2024/03/13 00:25:16;;;;;;;4.10;3.90;;;8.60;1.00;;;;;;5068269;28;20489;-83
2024/03/13 00:27:46;;;;;;;3.87;3.67;;;8.60;1.00;;;;;;5068243;28;20445;-82
2024/03/13 00:30:16;;;;;;;4.40;4.00;;;8.60;1.00;;;;;;5069915;28;20458;-82
2024/03/13 00:32:45;;;;;;;3.77;3.57;;;8.30;1.00;;;;;;5067767;28;20454;-83
2024/03/13 00:35:14;;;;;;;3.90;3.67;;;8.40;99.90;;;;;;5072516;28;20453;-84
2024/03/13 00:37:42;;;;;;;4.30;4.10;;;8.40;21.40;;;;;;5072574;28;20597;-82
2024/03/13 00:40:14;;;;;;;3.30;3.20;;;8.30;93.00;;;;;;5078049;28;20493;-83
2024/03/13 00:42:43;;;;;;;2.93;2.83;;;8.40;99.90;;;;;;5067284;28;20531;-83
2024/03/13 00:45:11;;;;;;;3.50;3.30;;;8.40;1.00;;;;;;5074636;28;20486;-83
2024/03/13 00:47:40;;;;;;;3.20;2.80;;;8.20;99.90;;;;;;5069437;28;20445;-83
2024/03/13 00:50:10;;;;;;;2.90;2.80;;;8.40;99.90;;;;;;5070731;28;21061;-83
2024/03/13 00:52:39;;;;;;;3.60;2.80;;;8.30;1.00;;;;;;5069600;28;20497;-81
2024/03/13 00:55:10;;;;;;;2.90;2.70;;;8.30;1.00;;;;;;5077809;28;20880;-82
2024/03/13 00:57:42;;;;;;;2.73;2.60;;;8.30;99.90;;;;;;5074258;28;21012;-84
2024/03/13 01:00:12;;;;;;;2.60;2.40;;;8.30;99.90;;;;;;5073525;28;20534;-82
2024/03/13 01:02:41;;;;;;;2.60;2.50;;;8.40;1.00;;;;;;5074295;28;20454;-82
2024/03/13 01:05:09;;;;;;;3.13;2.90;;;8.40;1.00;;;;;;5067091;28;20555;-82
2024/03/13 01:07:38;;;;;;;3.17;2.27;;;8.30;1.00;;;;;;5071804;28;20473;-82
2024/03/13 01:10:07;;;;;;;2.37;2.27;;;8.30;11.20;;;;;;5072950;28;20480;-82
2024/03/13 01:12:35;;;;;;;2.40;2.30;;;8.30;1.00;;;;;;5072450;28;20457;-83
2024/03/13 01:15:05;;;;;;;2.20;2.10;;;8.30;1.00;;;;;;5071285;28;20577;-81
2024/03/13 01:17:34;;;;;;;2.40;2.30;;;8.30;1.00;;;;;;5072255;28;20479;-83
2024/03/13 01:20:03;;;;;;;2.20;2.10;;;8.30;1.00;;;;;;5073270;28;20928;-83
2024/03/13 01:22:34;;;;;;;2.33;2.23;;;8.30;1.00;;;;;;5069933;28;20472;-83
2024/03/13 01:25:03;;;;;;;2.60;2.50;;;8.10;1.00;;;;;;5068556;28;20461;-83
2024/03/13 01:27:32;;;;;;;2.17;2.07;;;8.20;1.00;;;;;;5070076;28;20461;-82
2024/03/13 01:30:02;;;;;;;2.27;2.17;;;8.00;99.90;;;;;;5071551;28;20556;-80
2024/03/13 01:32:32;;;;;;;2.13;2.03;;;8.10;1.00;;;;;;5072052;28;20539;-81
2024/03/13 01:35:01;;;;;;;2.17;2.07;;;8.10;99.90;;;;;;5070266;28;20435;-81
2024/03/13 01:40:19;;;;;;;2.70;2.50;;;8.20;1.00;;;;;;5085119;28;20541;-80
2024/03/13 01:55:06;;;;;;;2.27;2.00;;;8.30;1.00;;;;;;5077444;28;20468;-83
2024/03/13 01:57:45;;;;;;;2.30;2.20;;;8.30;11.70;;;;;;5072387;28;20473;-83
2024/03/13 02:03:02;;;;;;;2.10;2.00;;;8.30;1.00;;;;;;5076429;28;20464;-83
2024/03/13 02:05:31;;;;;;;2.10;2.00;;;8.20;99.90;;;;;;5077102;28;20460;-83
2024/03/13 02:07:59;;;;;;;2.33;2.23;;;8.20;99.90;;;;;;5076322;28;20971;-82
2024/03/13 02:10:28;;;;;;;2.10;2.00;;;8.30;1.00;;;;;;5074883;28;20473;-83
2024/03/13 02:13:05;;;;;;;2.30;2.20;;;8.20;99.90;;;;;;5068217;28;20506;-82
2024/03/13 02:15:35;;;;;;;2.13;2.03;;;8.20;58.50;;;;;;5075576;28;20571;-83
2024/03/13 02:18:16;;;;;;;2.30;2.20;;;8.20;99.90;;;;;;5073691;28;20479;-82
2024/03/13 02:20:47;;;;;;;1.70;1.70;;;8.10;99.90;;;;;;5073526;28;20484;-82
2024/03/13 02:23:22;;;;;;;2.20;2.10;;;8.00;99.90;;;;;;5078279;28;20462;-83
2024/03/13 02:25:51;;;;;;;1.93;1.83;;;7.90;1.00;;;;;;5038916;28;20670;-82
2024/03/13 02:28:33;;;;;;;1.90;1.80;;;7.90;1.00;;;;;;5059800;28;20473;-82
2024/03/13 02:31:01;;;;;;;1.70;1.70;;;8.00;1.00;;;;;;5075529;28;20548;-82
2024/03/13 02:33:30;;;;;;;1.97;1.87;;;8.00;99.90;;;;;;5053544;28;20471;-82
2024/03/13 02:35:59;;;;;;;2.00;1.90;;;8.10;1.00;;;;;;5057719;28;21135;-82
2024/03/13 02:38:28;;;;;;;1.90;1.80;;;8.10;1.00;;;;;;5060709;28;20512;-83
2024/03/13 02:40:56;;;;;;;2.10;2.00;;;8.20;99.90;;;;;;5048971;28;20478;-83
2024/03/13 02:43:25;;;;;;;1.80;1.80;;;8.30;99.90;;;;;;5056621;28;20451;-83
2024/03/13 02:45:53;;;;;;;1.77;1.77;;;8.20;99.90;;;;;;5058673;28;20461;-82
2024/03/13 02:48:22;;;;;;;1.80;1.80;;;8.40;6.40;;;;;;5060077;28;20457;-80
2024/03/13 02:50:51;;;;;;;1.70;1.70;;;8.30;17.20;;;;;;5060296;28;20467;-81
2024/03/13 02:53:19;;;;;;;2.03;1.93;;;8.30;99.90;;;;;;5061888;28;20489;-81
2024/03/13 02:55:48;;;;;;;2.10;2.00;;;8.30;1.00;;;;;;5054503;28;20462;-82
2024/03/13 02:58:16;;;;;;;2.00;2.00;;;8.30;52.90;;;;;;5057181;28;20477;-81
2024/03/13 03:00:45;;;;;;;1.90;1.90;;;8.20;99.90;;;;;;5054382;28;20536;-84
2024/03/13 03:03:14;;;;;;;1.70;1.70;;;8.20;99.90;;;;;;5063057;28;20516;-82
2024/03/13 03:05:42;;;;;;;1.80;1.80;;;8.30;99.90;;;;;;5056297;28;20454;-81
2024/03/13 03:08:11;;;;;;;1.70;1.70;;;8.20;99.90;;;;;;5061191;28;20467;-83
2024/03/13 03:10:40;;;;;;;1.80;1.80;;;8.20;99.90;;;;;;5060248;28;20511;-80
2024/03/13 03:13:10;;;;;;;1.83;1.83;;;8.30;99.90;;;;;;5074473;28;20449;-83
2024/03/13 03:15:39;;;;;;;2.20;2.10;;;8.20;99.90;;;;;;5054705;28;20442;-82
2024/03/13 03:18:10;;;;;;;1.90;1.90;;;8.20;99.90;;;;;;5061163;28;20457;-83
2024/03/13 03:20:39;;;;;;;1.83;1.83;;;8.10;1.00;;;;;;5052343;28;21065;-84
2024/03/13 03:23:08;;;;;;;1.90;1.80;;;8.10;1.00;;;;;;5068367;28;20454;-82
2024/03/13 03:25:37;;;;;;;1.90;1.90;;;8.10;1.00;;;;;;5055180;28;20454;-84
2024/03/13 03:28:05;;;;;;;2.10;2.00;;;8.10;1.00;;;;;;5052389;28;20991;-82
2024/03/13 03:30:41;;;;;;;2.33;2.23;;;8.10;1.00;;;;;;5072095;28;21064;-82
2024/03/13 03:33:12;;;;;;;1.70;1.70;;;8.20;1.00;;;;;;5060860;28;20483;-82
2024/03/13 03:35:41;;;;;;;2.10;2.00;;;8.10;1.00;;;;;;5061477;28;20454;-82
2024/03/13 03:38:09;;;;;;;2.00;1.90;;;8.20;1.00;;;;;;5057532;28;20613;-82
2024/03/13 03:40:38;;;;;;;1.70;1.70;;;8.20;1.00;;;;;;5048934;28;20516;-82
2024/03/13 03:43:06;;;;;;;2.00;1.90;;;8.20;1.00;;;;;;5059885;28;20462;-83
2024/03/13 03:45:35;;;;;;;2.30;2.10;;;8.20;1.00;;;;;;5055555;28;20445;-81
2024/03/13 03:48:03;;;;;;;1.70;1.70;;;8.30;1.00;;;;;;5042957;28;20465;-81
2024/03/13 03:50:39;;;;;;;1.80;1.80;;;8.30;99.90;;;;;;5058532;28;20484;-83
2024/03/13 03:53:07;;;;;;;1.80;1.80;;;8.30;1.00;;;;;;5057981;28;20529;-82
2024/03/13 03:55:36;;;;;;;2.20;2.20;;;8.10;99.90;;;;;;5056546;28;20469;-83
2024/03/13 03:58:06;;;;;;;2.13;2.03;;;8.20;1.00;;;;;;5067352;28;20725;-81
2024/03/13 04:00:35;;;;;;;1.90;1.90;;;8.10;99.90;;;;;;5051822;28;20505;-83
2024/03/13 04:03:05;;;;;;;2.03;1.93;;;8.10;14.40;;;;;;5038284;28;20462;-83
2024/03/13 04:05:34;;;;;;;2.10;2.10;;;8.20;1.00;;;;;;5057915;28;20450;-82
2024/03/13 04:08:03;;;;;;;2.17;2.17;;;8.10;53.90;;;;;;5055295;28;20526;-83
2024/03/13 04:10:32;;;;;;;1.90;1.90;;;8.10;1.00;;;;;;5054889;28;20469;-83
2024/03/13 04:13:02;;;;;;;2.10;2.00;;;8.20;1.00;;;;;;5055803;28;20496;-83
2024/03/13 04:15:31;;;;;;;2.10;2.10;;;8.10;1.00;;;;;;5055917;28;20549;-80
2024/03/13 04:17:59;;;;;;;1.80;1.80;;;8.10;99.90;;;;;;5052606;28;22660;-83
2024/03/13 04:20:28;;;;;;;2.20;2.10;;;8.20;99.90;;;;;;5054297;28;20480;-81
2024/03/13 04:22:56;;;;;;;2.00;2.00;;;8.20;1.00;;;;;;5038987;28;20466;-81
2024/03/13 04:25:24;;;;;;;2.17;2.10;;;8.20;1.00;;;;;;5054910;28;20456;-82
2024/03/13 04:27:54;;;;;;;6.30;2.20;;;8.20;99.90;;;;;;5040306;28;20508;-82
2024/03/13 04:30:24;;;;;;;1.80;1.80;;;8.20;1.00;;;;;;5055436;28;20472;-81
2024/03/13 04:32:53;;;;;;;2.10;2.00;;;8.20;99.90;;;;;;5055901;28;20481;-80
2024/03/13 04:35:21;;;;;;;1.90;1.90;;;8.20;99.90;;;;;;5054909;28;20457;-82
2024/03/13 04:37:50;;;;;;;2.00;2.00;;;8.10;27.50;;;;;;5032754;28;20460;-81
2024/03/13 04:40:19;;;;;;;1.80;1.80;;;8.10;1.00;;;;;;5055553;28;20479;-82
2024/03/13 04:42:48;;;;;;;2.00;2.00;;;8.20;99.90;;;;;;5055972;28;20887;-83
2024/03/13 04:45:17;;;;;;;2.10;2.00;;;8.10;99.90;;;;;;5053379;28;21496;-83
2024/03/13 04:47:45;;;;;;;2.60;2.50;;;8.10;99.90;;;;;;5071456;28;20447;-82
2024/03/13 04:50:14;;;;;;;2.00;2.00;;;8.10;1.00;;;;;;5052312;28;20497;-83
2024/03/13 04:52:42;;;;;;;2.40;2.30;;;8.20;69.70;;;;;;5055736;28;20457;-82
2024/03/13 04:55:10;;;;;;;2.10;2.10;;;8.10;99.90;;;;;;5054410;28;21120;-80
2024/03/13 04:57:41;;;;;;;2.20;2.10;;;8.10;1.00;;;;;;5055158;28;20456;-82
2024/03/13 05:00:11;;;;;;;2.57;2.47;;;8.20;99.90;;;;;;5035302;28;20485;-82
2024/03/13 05:02:39;;;;;;;2.10;2.10;;;8.10;99.90;;;;;;5032828;28;21365;-83
2024/03/13 05:05:14;;;;;;;2.50;2.40;;;8.10;2.10;;;;;;5064914;28;20464;-82
2024/03/13 05:07:43;;;;;;;2.27;2.27;;;8.10;1.00;;;;;;5051992;28;20465;-84
2024/03/13 05:10:16;;;;;;;2.70;2.60;;;8.10;99.90;;;;;;5053421;28;20465;-83
2024/03/13 05:12:44;;;;;;;2.50;2.50;;;8.10;99.90;;;;;;5048438;28;20486;-83
2024/03/13 05:15:13;;;;;;;2.40;2.30;;;8.20;1.00;;;;;;5062409;28;20453;-83
2024/03/13 05:17:41;;;;;;;2.07;2.07;;;8.20;1.00;;;;;;5062406;28;20446;-82
2024/03/13 05:20:11;;;;;;;2.23;2.23;;;8.10;1.00;;;;;;5078875;28;20561;-80
2024/03/13 05:22:40;;;;;;;2.50;2.40;;;8.20;99.90;;;;;;5061147;28;20531;-86
2024/03/13 05:25:14;;;;;;;2.70;2.60;;;8.20;1.00;;;;;;5057418;28;20452;-81
2024/03/13 05:27:43;;;;;;;2.50;2.40;;;8.30;99.90;;;;;;5059400;28;20469;-83
2024/03/13 05:30:11;;;;;;;2.53;2.43;;;8.30;1.00;;;;;;5061442;28;21014;-81
2024/03/13 05:32:40;;;;;;;3.40;3.07;;;8.30;99.90;;;;;;5038662;28;20459;-85
2024/03/13 05:35:10;;;;;;;2.80;2.70;;;8.20;1.00;;;;;;5081264;28;20480;-82
2024/03/13 05:37:41;;;;;;;2.67;2.57;;;8.20;99.90;;;;;;5057539;28;20487;-82
2024/03/13 05:40:16;;;;;;;2.70;2.60;;;8.30;39.80;;;;;;5063449;28;20473;-83
2024/03/13 05:42:45;;;;;;;3.20;3.10;;;8.30;1.00;;;;;;5056050;28;20546;-81
2024/03/13 05:45:14;;;;;;;2.63;2.53;;;8.30;1.00;;;;;;5060350;28;20461;-82
2024/03/13 05:47:43;;;;;;;2.77;2.67;;;8.20;5.80;;;;;;5052189;28;20462;-81
2024/03/13 05:50:12;;;;;;;2.70;2.60;;;8.30;99.90;;;;;;5059906;28;20473;-81
2024/03/13 05:52:41;;;;;;;2.77;2.67;;;8.30;99.90;;;;;;5063459;28;20551;-81
2024/03/13 05:55:10;;;;;;;2.90;2.80;;;8.30;99.90;;;;;;5080458;28;20450;-82
2024/03/13 05:57:39;;;;;;;2.30;2.20;;;8.40;66.30;;;;;;5049335;28;20465;-82
2024/03/13 06:00:11;;;;;;;2.50;2.40;;;8.40;71.40;;;;;;5054093;28;20907;-82
2024/03/13 06:02:41;;;;;;;2.73;2.63;;;8.40;1.00;;;;;;5054872;28;20512;-82
2024/03/13 06:05:14;;;;;;;2.97;2.87;;;8.20;79.40;;;;;;5058521;28;20450;-81
2024/03/13 06:07:43;;;;;;;2.80;2.70;;;8.30;99.90;;;;;;5076739;28;20510;-80
2024/03/13 06:10:12;;;;;;;2.60;2.50;;;8.30;1.00;;;;;;5047888;28;21015;-82
2024/03/13 06:12:40;;;;;;;2.47;2.37;;;8.30;1.00;;;;;;5058582;28;20467;-83
2024/03/13 06:15:13;;;;;;;2.83;2.73;;;8.40;1.00;;;;;;5060474;28;21040;-83
2024/03/13 06:17:44;;;;;;;2.70;2.60;;;8.40;99.90;;;;;;5063978;28;20477;-81
2024/03/13 06:20:15;;;;;;;2.60;2.50;;;8.40;99.90;;;;;;5057144;28;20476;-81
2024/03/13 06:22:43;;;;;;;2.67;2.57;;;8.40;99.90;;;;;;5050642;28;20492;-81
2024/03/13 06:25:13;;;;;;;3.20;3.10;;;8.40;99.90;;;;;;5072382;28;20458;-83
2024/03/13 06:27:41;;;;;;;3.37;3.17;;;8.40;1.00;;;;;;5052446;28;20464;-81
2024/03/13 06:30:09;;;;;;;3.27;3.17;;;8.40;1.00;;;;;;5051986;28;20571;-82
2024/03/13 06:32:37;;;;;;;2.97;2.87;;;8.50;1.00;;;;;;5060726;28;20449;-81
2024/03/13 06:35:06;;;;;;;2.97;2.87;;;8.60;99.90;;;;;;5055387;28;20458;-80
2024/03/13 06:37:35;;;;;;;3.10;3.00;;;8.60;99.90;;;;;;5056224;28;20466;-79
2024/03/13 06:40:05;;;;;;;3.23;3.13;;;8.60;1.00;;;;;;5055229;28;20566;-79
2024/03/13 06:42:33;;;;;;;3.43;3.23;;;8.50;27.10;;;;;;5058209;28;21198;-82
2024/03/13 06:45:01;;;;;;;2.80;2.70;;;8.50;1.00;;;;;;5060757;28;20449;-81
2024/03/13 06:47:30;;;;;;;3.13;3.03;;;8.50;1.00;;;;;;5058548;28;20534;-81
2024/03/13 06:49:58;;;;;;;2.97;2.87;;;8.50;61.20;;;;;;5056578;28;20558;-81
2024/03/13 06:52:28;;;;;;;3.40;3.30;;;8.60;1.00;;;;;;5060062;28;20591;-79
2024/03/13 06:54:56;;;;;;;3.10;3.00;;;8.50;1.00;;;;;;5072307;28;20471;-80
2024/03/13 06:57:25;;;;;;;3.43;3.27;;;8.50;99.90;;;;;;5060455;28;20462;-81
2024/03/13 06:59:53;;;;;;;3.40;3.30;;;8.50;99.90;;;;;;5057475;28;20473;-79
2024/03/13 07:02:28;;;;;;;2.73;2.63;;;8.60;99.90;;;;;;5062552;28;20561;-82
2024/03/13 07:04:56;;;;;;;3.23;3.13;;;8.50;99.90;;;;;;5058736;28;20443;-80
2024/03/13 07:07:25;;;;;;;3.30;3.20;;;8.60;1.00;;;;;;5058963;28;20479;-80
2024/03/13 07:09:54;;;;;;;3.50;3.40;;;8.60;1.00;;;;;;5057582;28;20505;-81
2024/03/13 07:12:24;;;;;;;3.63;3.43;;;8.70;1.00;;;;;;5057248;28;20516;-80
2024/03/13 07:14:53;;;;;;;3.00;2.90;;;8.70;99.90;;;;;;5059569;28;20442;-82
2024/03/13 07:17:22;;;;;;;3.37;3.27;;;8.60;99.90;;;;;;5058525;28;20445;-80
2024/03/13 07:19:50;;;;;;;3.80;3.60;;;8.70;99.90;;;;;;5059653;28;20464;-82
2024/03/13 07:22:18;;;;;;;4.00;3.90;;;8.70;99.90;;;;;;5059386;28;20471;-81
2024/03/13 07:24:47;;;;;;;3.63;3.53;;;8.70;1.00;;;;;;5060814;28;20934;-80
2024/03/13 07:27:15;;;;;;;3.33;3.23;;;8.70;99.90;;;;;;5059977;28;20439;-80
2024/03/13 07:29:44;;;;;;;4.40;4.20;;;8.70;1.00;;;;;;5057647;28;20505;-82
2024/03/13 07:32:14;;;;;;;4.10;3.90;;;8.80;99.90;;;;;;5059475;28;20497;-81
2024/03/13 07:34:44;;;;;;;4.17;3.87;;;8.80;99.90;;;;;;5062175;28;20446;-79
2024/03/13 07:37:12;;;;;;;3.93;3.83;;;8.80;99.90;;;;;;5058990;28;20492;-82
2024/03/13 07:39:41;;;;;;;4.00;3.90;;;8.80;99.90;;;;;;5046570;28;20469;-82
2024/03/13 07:42:10;;;;;;;4.00;3.90;;;8.90;99.90;;;;;;5058864;28;20471;-82
2024/03/13 07:44:38;;;;;;;4.07;3.97;;;8.90;94.10;;;;;;5060121;28;20912;-81
2024/03/13 07:47:08;;;;;;;4.37;4.17;;;9.00;1.00;;;;;;5055679;28;20456;-81
2024/03/13 07:49:37;;;;;;;4.07;3.97;;;9.00;1.00;;;;;;5049158;28;20495;-80
2024/03/13 07:52:05;;;;;;;3.97;3.87;;;9.00;1.00;;;;;;5058915;28;20457;-82
2024/03/13 07:54:37;;;;;;;4.50;4.30;;;9.10;14.20;;;;;;5054037;28;20509;-80
2024/03/13 07:57:05;;;;;;;4.10;4.00;;;9.10;1.00;;;;;;5032074;28;20449;-80
2024/03/13 07:59:34;;;;;;;4.50;4.30;;;9.10;1.00;;;;;;5058539;28;20483;-80
2024/03/13 08:02:02;;;;;;;4.00;3.90;;;9.10;1.00;;;;;;5059151;28;20829;-80
2024/03/13 08:04:31;;;;;;;3.90;3.80;;;9.10;99.90;;;;;;5058862;28;20458;-81
2024/03/13 08:06:59;;;;;;;4.23;4.13;;;9.20;99.90;;;;;;5057569;28;20532;-81
2024/03/13 08:09:45;;;;;;;3.50;3.40;;;9.20;99.90;;;;;;5056410;28;21018;-81
2024/03/13 08:12:31;;;;;;;3.40;3.30;;;9.30;99.90;;;;;;5059109;28;20460;-80
2024/03/13 08:15:17;;;;;;;3.90;3.80;;;9.40;99.90;;;;;;5062479;28;20612;-79
2024/03/13 08:18:04;;;;;;;3.57;3.40;;;9.40;99.90;;;;;;5056445;28;20448;-79
2024/03/13 08:20:52;;;;;;;3.30;3.20;;;9.40;99.90;;;;;;5060360;28;20491;-80
2024/03/13 08:23:37;;;;;;;3.50;3.40;;;9.40;99.90;;;;;;5058201;28;20492;-79
2024/03/13 08:26:23;;;;;;;3.40;3.30;;;9.50;99.90;;;;;;5064583;28;20461;-80
2024/03/13 08:29:15;;;;;;;3.30;3.20;;;9.50;99.90;;;;;;5062500;28;20546;-80
2024/03/13 08:32:00;;;;;;;3.27;3.17;;;9.50;99.90;;;;;;5060563;28;20457;-80
2024/03/13 08:34:46;;;;;;;3.50;3.40;;;9.60;1.00;;;;;;5060555;28;20462;-80
2024/03/13 08:37:32;;;;;;;3.60;3.50;;;9.60;99.90;;;;;;5062206;28;21011;-80
2024/03/13 08:40:18;;;;;;;3.50;3.40;;;9.60;1.00;;;;;;5062398;28;20519;-80
2024/03/13 08:43:04;;;;;;;3.40;3.30;;;9.60;1.00;;;;;;5042785;28;20476;-81
2024/03/13 08:45:50;;;;;;;3.97;3.87;;;9.60;1.00;;;;;;5059838;28;20535;-80
2024/03/13 08:48:36;;;;;;;3.80;3.70;;;9.60;1.00;;;;;;5058907;28;20448;-81
2024/03/13 08:51:22;;;;;;;3.60;3.50;;;9.60;16.70;;;;;;5062277;28;20486;-81
2024/03/13 08:54:11;;;;;;;3.80;3.70;;;9.60;27.90;;;;;;5055909;28;20474;-79
2024/03/13 08:56:57;;;;;;;3.57;3.47;;;9.60;1.00;;;;;;5062587;28;20461;-80
2024/03/13 08:59:43;;;;;;;3.70;3.60;;;9.70;1.00;;;;;;5063147;28;20473;-80
2024/03/13 09:02:29;;;;;;;3.53;3.43;;;9.70;1.00;;;;;;5046320;28;20467;-80
2024/03/13 09:05:15;;;;;;;3.70;3.60;;;9.70;1.00;;;;;;5061372;28;20450;-80
2024/03/13 09:08:02;;;;;;;3.70;3.60;;;9.80;99.90;;;;;;5056847;28;20543;-82
2024/03/13 09:10:30;;;;;;;3.90;3.80;;;9.80;1.00;;;;;;5059903;28;21069;-79
2024/03/13 09:12:58;;;;;;;3.87;3.77;;;9.80;99.90;;;;;;5061026;28;20525;-81
2024/03/13 09:15:27;;;;;;;3.90;3.80;;;9.70;99.90;;;;;;5056114;28;20468;-79
2024/03/13 09:17:55;;;;;;;4.37;4.27;;;9.70;1.00;;;;;;5052415;28;20465;-79
2024/03/13 09:20:25;;;;;;;4.03;3.93;;;9.80;1.00;;;;;;5057169;28;20484;-78
2024/03/13 09:22:54;;;;;;;3.90;3.80;;;9.80;1.00;;;;;;5057361;28;20580;-82
2024/03/13 09:25:22;;;;;;;4.30;4.20;;;9.80;71.60;;;;;;5067566;28;20451;-79
2024/03/13 09:27:51;;;;;;;4.70;4.30;;;9.80;1.00;;;;;;5063129;28;20451;-80
2024/03/13 09:30:19;;;;;;;4.40;4.30;;;9.80;1.00;;;;;;5062632;28;20483;-79
2024/03/13 09:32:48;;;;;;;4.33;4.23;;;9.80;1.00;;;;;;5058363;28;20445;-79
2024/03/13 09:35:17;;;;;;;4.43;4.33;;;9.90;1.00;;;;;;5061390;28;20442;-79
2024/03/13 09:37:46;;;;;;;4.90;4.60;;;9.90;1.00;;;;;;5061852;28;20533;-79
2024/03/13 09:40:16;;;;;;;4.30;4.20;;;9.90;1.00;;;;;;5058972;28;20479;-80
2024/03/13 09:42:45;;;;;;;4.10;4.00;;;9.90;99.90;;;;;;5061280;28;21026;-80
2024/03/13 09:45:14;;;;;;;4.10;4.00;;;9.90;1.00;;;;;;5059990;28;20451;-82
2024/03/13 09:47:43;;;;;;;4.23;4.13;;;10.00;99.90;;;;;;5050673;28;20488;-79
2024/03/13 09:50:12;;;;;;;4.53;4.43;;;10.00;99.90;;;;;;5063233;28;20463;-79
2024/03/13 09:52:40;;;;;;;4.67;4.57;;;10.10;99.90;;;;;;5056862;28;20454;-78
2024/03/13 09:55:10;;;;;;;4.93;4.83;;;10.10;99.90;;;;;;5061262;28;20966;-82
2024/03/13 09:57:39;;;;;;;5.00;4.80;;;10.20;99.90;;;;;;5058940;28;20983;-80
2024/03/13 10:00:09;;;;;;;5.20;5.10;;;10.20;99.90;;;;;;5061012;28;20470;-80
2024/03/13 10:02:38;;;;;;;5.53;5.33;;;10.20;99.90;;;;;;5062162;28;20484;-79
2024/03/13 10:05:11;;;;;;;5.50;5.40;;;10.20;99.90;;;;;;5058582;28;20445;-82
2024/03/13 10:07:39;;;;;;;6.47;6.17;;;10.30;99.90;;;;;;5056007;28;20484;-80
2024/03/13 10:10:11;;;;;;;6.70;6.40;;;10.30;99.90;;;;;;5057148;28;20496;-78
2024/03/13 10:12:41;;;;;;;6.70;6.40;;;10.30;99.90;;;;;;5062926;28;20551;-82
2024/03/13 10:15:10;;;;;;;5.33;5.23;;;10.40;99.90;;;;;;5061812;28;20449;-80
2024/03/13 10:17:40;;;;;;;5.40;5.30;;;10.40;99.90;;;;;;5063799;28;20444;-80
2024/03/13 10:20:13;;;;;;;5.60;5.40;;;10.50;1.00;;;;;;5058298;28;20647;-83
2024/03/13 10:22:43;;;;;;;5.80;5.60;;;10.60;99.90;;;;;;5068788;28;20490;-79
2024/03/13 10:25:15;;;;;;;6.07;5.90;;;10.60;99.90;;;;;;5056601;28;20472;-79
2024/03/13 10:27:43;;;;;;;5.43;5.33;;;10.60;99.90;;;;;;5040402;28;20454;-79
2024/03/13 10:30:12;;;;;;;6.17;5.87;;;10.60;1.00;;;;;;5055788;28;20545;-80
2024/03/13 10:32:40;;;;;;;6.13;5.93;;;10.70;99.90;;;;;;5057771;28;20434;-80
2024/03/13 10:35:10;;;;;;;6.03;5.73;;;10.70;1.00;;;;;;5058584;28;20459;-80
2024/03/13 10:37:38;;;;;;;5.83;5.67;;;10.70;1.00;;;;;;5073730;28;20485;-80
2024/03/13 10:40:07;;;;;;;5.60;5.50;;;10.70;1.00;;;;;;5062952;28;20466;-80
2024/03/13 10:42:37;;;;;;;5.47;5.37;;;10.70;1.00;;;;;;5056632;28;20536;-80
2024/03/13 10:45:05;;;;;;;6.13;6.00;;;10.80;1.00;;;;;;5060711;28;21136;-79
2024/03/13 10:47:33;;;;;;;6.50;6.30;;;10.80;1.00;;;;;;5061300;28;20443;-79
2024/03/13 10:50:03;;;;;;;6.43;6.23;;;10.80;99.90;;;;;;5054099;28;20478;-80
2024/03/13 10:52:31;;;;;;;10.40;6.73;;;10.80;1.00;;;;;;5053856;28;20537;-80
2024/03/13 10:54:59;;;;;;;6.67;6.47;;;10.90;1.00;;;;;;5056958;28;20490;-81
2024/03/13 10:57:28;;;;;;;6.27;6.13;;;10.90;1.00;;;;;;5061174;28;20527;-81
2024/03/13 10:59:56;;;;;;;6.00;5.90;;;11.00;1.00;;;;;;5056894;28;20480;-79
2024/03/13 11:02:25;;;;;;;6.50;6.30;;;10.90;99.90;;;;;;5052206;28;20851;-81
2024/03/13 11:04:53;;;;;;;6.47;6.27;;;10.90;1.00;;;;;;5061980;28;20470;-81
2024/03/13 11:07:21;;;;;;;6.10;6.00;;;11.00;1.00;;;;;;5060510;28;20528;-80
2024/03/13 11:09:50;;;;;;;6.70;6.50;;;11.00;99.90;;;;;;5057770;28;20478;-81
2024/03/13 11:12:19;;;;;;;6.63;6.43;;;11.00;99.90;;;;;;5060328;28;20550;-79
2024/03/13 11:14:50;;;;;;;6.83;6.63;;;11.00;1.00;;;;;;5057869;28;20473;-81
2024/03/13 11:17:20;;;;;;;7.13;6.83;;;11.00;1.00;;;;;;5058984;28;20503;-81
2024/03/13 11:19:49;;;;;;;7.00;6.80;;;11.00;1.00;;;;;;5060594;28;20482;-79
2024/03/13 11:22:17;;;;;;;7.17;6.97;;;11.10;1.00;;;;;;5056339;28;20525;-81
2024/03/13 11:24:45;;;;;;;7.17;6.97;;;11.10;1.00;;;;;;5061905;28;21233;-82
2024/03/13 11:27:14;;;;;;;6.60;6.40;;;11.10;1.00;;;;;;5056287;28;21025;-80
2024/03/13 11:29:44;;;;;;;6.57;6.47;;;11.10;1.00;;;;;;5059406;28;20579;-80
2024/03/13 11:32:14;;;;;;;7.60;7.30;;;11.10;1.00;;;;;;5059491;28;20460;-79
2024/03/13 11:34:42;;;;;;;7.33;7.10;;;11.20;1.00;;;;;;5059198;28;20523;-79
2024/03/13 11:37:11;;;;;;;7.50;7.00;;;11.20;1.00;;;;;;5057604;28;20502;-79
2024/03/13 11:39:41;;;;;;;6.80;6.60;;;11.20;1.00;;;;;;5057370;28;20478;-80
2024/03/13 11:42:13;;;;;;;7.17;6.87;;;11.30;1.00;;;;;;5056751;28;20456;-80
2024/03/13 11:44:46;;;;;;;6.90;6.60;;;11.30;1.00;;;;;;5049743;28;20468;-79
2024/03/13 11:47:16;;;;;;;7.23;7.13;;;11.30;1.00;;;;;;5048016;28;20451;-80
2024/03/13 11:49:45;;;;;;;7.07;6.87;;;11.30;1.00;;;;;;5057637;28;21124;-79
2024/03/13 11:52:15;;;;;;;6.93;6.63;;;11.30;1.00;;;;;;5075063;28;20464;-80
2024/03/13 11:54:46;;;;;;;8.07;7.47;;;11.40;1.00;;;;;;5076064;28;20961;-80
2024/03/13 11:57:14;;;;;;;6.53;6.33;;;11.50;1.00;;;;;;5056149;28;20490;-83
2024/03/13 11:59:44;;;;;;;6.80;6.50;;;11.50;1.00;;;;;;5059295;28;20479;-83
2024/03/13 12:02:42;;;;;;;6.70;6.50;;;11.50;1.00;;;;;;5070104;28;20472;-79
2024/03/13 12:05:11;;;;;;;8.60;8.30;;;11.50;1.00;;;;;;5069888;28;20451;-80
2024/03/13 12:07:42;;;;;;;7.90;7.60;;;11.50;1.00;;;;;;5034602;28;20469;-81
2024/03/13 12:10:16;;;;;;;7.23;7.03;;;11.60;1.00;;;;;;5062853;28;20470;-80
2024/03/13 12:12:46;;;;;;;7.67;7.40;;;11.60;1.00;;;;;;5059766;28;20895;-81
2024/03/13 12:15:17;;;;;;;7.60;7.40;;;11.60;1.00;;;;;;5059444;28;21007;-80
2024/03/13 12:17:49;;;;;;;7.20;7.00;;;11.60;1.00;;;;;;5057267;28;20528;-81
2024/03/13 12:20:22;;;;;;;7.50;7.27;;;11.70;1.00;;;;;;5054399;28;21025;-79
2024/03/13 12:22:51;;;;;;;7.13;7.03;;;11.70;1.00;;;;;;5059693;28;20447;-80
2024/03/13 12:25:20;;;;;;;7.63;7.50;;;11.70;1.00;;;;;;5059083;28;20817;-82
2024/03/13 12:27:49;;;;;;;7.10;7.00;;;11.80;1.00;;;;;;5057324;28;20461;-79
2024/03/13 12:30:19;;;;;;;7.50;7.30;;;11.80;1.00;;;;;;5059162;28;20468;-83
2024/03/13 12:32:51;;;;;;;8.30;8.00;;;11.90;1.00;;;;;;5057490;28;20460;-80
2024/03/13 12:35:20;;;;;;;7.87;7.67;;;11.90;1.00;;;;;;5059664;28;20992;-83
2024/03/13 12:37:53;;;;;;;7.90;7.70;;;11.90;1.00;;;;;;5044667;28;20532;-83
2024/03/13 12:40:22;;;;;;;7.60;7.50;;;11.90;1.00;;;;;;5070565;28;20476;-82
2024/03/13 12:42:50;;;;;;;7.60;7.50;;;11.90;1.00;;;;;;5035014;28;20459;-80
2024/03/13 12:45:19;;;;;;;7.70;7.60;;;11.90;1.00;;;;;;5049228;28;20446;-80
2024/03/13 12:47:47;;;;;;;7.77;7.60;;;12.00;1.00;;;;;;5054677;28;20460;-79
2024/03/13 12:50:16;;;;;;;7.70;7.60;;;12.00;1.00;;;;;;5050310;28;20513;-80
2024/03/13 12:52:46;;;;;;;7.90;7.80;;;12.00;1.00;;;;;;5041764;28;20452;-79
2024/03/13 12:55:16;;;;;;;8.20;8.10;;;12.00;1.00;;;;;;5048165;28;20460;-77
2024/03/13 12:57:45;;;;;;;7.93;7.83;;;12.10;1.00;;;;;;5041197;28;20526;-77
2024/03/13 13:00:18;;;;;;;8.00;7.90;;;12.10;1.00;;;;;;5046700;28;20480;-78
2024/03/13 13:02:48;;;;;;;8.37;8.13;;;12.00;1.00;;;;;;5048260;28;20515;-81
2024/03/13 13:05:17;;;;;;;8.23;8.13;;;12.00;1.00;;;;;;5048528;28;20485;-77
2024/03/13 13:07:50;;;;;;;8.70;8.50;;;12.00;1.00;;;;;;5024090;28;20470;-78
2024/03/13 13:10:20;;;;;;;8.90;8.70;;;12.00;1.00;;;;;;5046284;28;20575;-79
2024/03/13 13:12:49;;;;;;;8.70;8.50;;;12.00;1.00;;;;;;5050368;28;20462;-78
2024/03/13 13:15:17;;;;;;;10.30;9.80;;;12.00;1.00;;;;;;5042286;28;20451;-76
2024/03/13 13:17:47;;;;;;;10.10;9.63;;;12.00;1.00;;;;;;5038213;28;20723;-79
2024/03/13 13:20:16;;;;;;;9.00;8.73;;;12.00;1.00;;;;;;5064371;28;20558;-79
2024/03/13 13:22:45;;;;;;;9.70;9.50;;;12.00;1.00;;;;;;5030012;28;20989;-80
2024/03/13 13:25:13;;;;;;;8.90;8.70;;;12.00;1.00;;;;;;5046383;28;20469;-81
2024/03/13 13:27:42;;;;;;;8.70;8.60;;;12.10;1.00;;;;;;5054843;28;20900;-80
2024/03/13 13:30:13;;;;;;;9.13;8.93;;;12.10;1.00;;;;;;5055893;28;20474;-80
2024/03/13 13:32:41;;;;;;;9.30;9.10;;;12.10;99.90;;;;;;5053839;28;20472;-80
2024/03/13 13:35:10;;;;;;;8.67;8.53;;;12.20;99.90;;;;;;5043803;28;20462;-79